createdAt,value
2022-10-20T00:03:21.857Z,8
2022-10-20T00:08:04.172Z,8
2022-10-20T00:12:45.581Z,8.1
2022-10-20T00:17:27.796Z,7.8
2022-10-20T00:22:10.102Z,7.8
2022-10-20T00:26:52.315Z,7.9
2022-10-20T00:31:34.621Z,7.8
2022-10-20T00:36:16.932Z,7.7
2022-10-20T00:40:59.145Z,7.6
2022-10-20T00:45:41.471Z,7.5
2022-10-20T00:50:23.764Z,7.7
2022-10-20T00:55:05.978Z,7.7
2022-10-20T00:59:48.286Z,7.7
2022-10-20T01:04:30.606Z,7.7
2022-10-20T01:09:12.909Z,7.6
2022-10-20T01:13:54.232Z,7.6
2022-10-20T01:18:35.427Z,7.5
2022-10-20T01:23:16.742Z,7.6
2022-10-20T01:27:58.049Z,7.5
2022-10-20T01:32:40.362Z,7.6
2022-10-20T01:37:22.668Z,7.5
2022-10-20T01:42:04.887Z,7.6
2022-10-20T01:46:47.193Z,7.4
2022-10-20T01:51:29.517Z,7.5
2022-10-20T01:56:11.842Z,7.3
2022-10-20T02:00:54.022Z,7.4
2022-10-20T02:05:36.336Z,7.2
2022-10-20T02:10:18.657Z,7.2
2022-10-20T02:15:00.858Z,7
2022-10-20T02:19:43.176Z,7.2
2022-10-20T02:24:25.487Z,7.1
2022-10-20T02:29:06.789Z,7.1
2022-10-20T02:33:48.997Z,7.1
2022-10-20T02:38:31.335Z,7.3
2022-10-20T02:43:13.621Z,7.2
2022-10-20T02:47:55.829Z,7.1
2022-10-20T02:52:38.160Z,7.1
2022-10-20T02:57:20.454Z,7
2022-10-20T03:02:01.765Z,7.1
2022-10-20T03:06:43.070Z,7.2
2022-10-20T03:11:24.381Z,7.1
2022-10-20T03:16:05.687Z,7.3
2022-10-20T03:20:46.998Z,7.6
2022-10-20T03:25:28.207Z,7.6
2022-10-20T03:30:10.518Z,7.9
2022-10-20T03:34:52.829Z,7.6
2022-10-20T03:39:35.138Z,7.4
2022-10-20T03:44:17.348Z,7.2
2022-10-20T03:48:59.660Z,7.4
2022-10-20T03:53:41.969Z,7.2
2022-10-20T03:58:24.187Z,7.5
2022-10-20T04:03:06.503Z,7.5
2022-10-20T04:07:48.802Z,7.5
2022-10-20T04:12:31.015Z,7.4
2022-10-20T04:17:13.328Z,7.5
2022-10-20T04:21:55.640Z,7.6
2022-10-20T04:26:36.943Z,7.4
2022-10-20T04:31:19.157Z,7.3
2022-10-20T04:36:01.479Z,7
2022-10-20T04:40:43.778Z,6.9
2022-10-20T04:45:25.988Z,6.9
2022-10-20T04:50:08.320Z,6.9
2022-10-20T04:54:50.608Z,7.1
2022-10-20T04:59:31.922Z,7.1
2022-10-20T05:04:13.231Z,7.2
2022-10-20T05:08:54.535Z,7
2022-10-20T05:13:35.846Z,7.3
2022-10-20T05:18:18.062Z,7
2022-10-20T05:23:00.371Z,7
2022-10-20T05:27:42.774Z,7
2022-10-20T05:32:24.984Z,6.6
2022-10-20T05:37:07.315Z,6.6
2022-10-20T05:41:49.661Z,6.6
2022-10-20T05:46:31.984Z,6.8
2022-10-20T05:51:14.156Z,6.9
2022-10-20T05:55:56.500Z,7.2
2022-10-20T06:00:38.781Z,7.1
2022-10-20T06:05:21.066Z,7.2
2022-10-20T06:10:03.178Z,7.5
2022-10-20T06:14:44.489Z,7.5
2022-10-20T06:19:26.939Z,7.7
2022-10-20T06:24:09.151Z,7.7
2022-10-20T06:28:51.476Z,7.8
2022-10-20T06:33:33.776Z,7.9
2022-10-20T06:38:15.903Z,7.9
2022-10-20T06:42:58.299Z,7.9
2022-10-20T06:47:39.473Z,8.2
2022-10-20T06:52:20.937Z,8
2022-10-20T06:57:02.156Z,8.3
2022-10-20T07:01:43.550Z,9.1
2022-10-20T07:06:25.846Z,9.7
2022-10-20T07:11:08.088Z,9.2
2022-10-20T07:15:50.407Z,9.3
2022-10-20T07:20:32.536Z,9.4
2022-10-20T07:25:14.744Z,9.6
2022-10-20T07:29:57.058Z,10
2022-10-20T07:34:39.366Z,10
2022-10-20T07:39:21.652Z,10.1
2022-10-20T07:44:04.070Z,10.5
2022-10-20T07:48:46.301Z,10.6
2022-10-20T07:53:28.513Z,10.7
2022-10-20T07:58:10.859Z,11.1
2022-10-20T08:02:52.149Z,11.2
2022-10-20T08:07:34.498Z,11.6
2022-10-20T08:12:16.646Z,11.8
2022-10-20T08:16:59.534Z,11.9
2022-10-20T08:21:41.298Z,11.7
2022-10-20T08:26:23.654Z,12
2022-10-20T08:31:05.735Z,12.4
2022-10-20T08:35:47.063Z,12.8
2022-10-20T08:40:28.365Z,13
2022-10-20T08:45:09.715Z,13.4
2022-10-20T08:49:51.043Z,13.9
2022-10-20T08:54:33.284Z,14.3
2022-10-20T08:59:15.490Z,14.2
2022-10-20T09:03:57.771Z,14.9
2022-10-20T09:08:40.081Z,15.2
2022-10-20T09:13:22.304Z,15.3
2022-10-20T09:18:04.612Z,15.9
2022-10-20T09:22:47.009Z,15.9
2022-10-20T09:27:29.163Z,17.1
2022-10-20T09:32:11.514Z,17.4
2022-10-20T09:36:53.788Z,17.8
2022-10-20T09:41:35.959Z,19.3
2022-10-20T09:46:18.273Z,19.5
2022-10-20T09:50:59.685Z,18.9
2022-10-20T09:55:41.970Z,19.6
2022-10-20T10:00:24.170Z,20.1
2022-10-20T10:05:06.415Z,20.4
2022-10-20T10:09:48.728Z,20.4
2022-10-20T10:14:30.939Z,20.5
2022-10-20T10:19:13.248Z,21
2022-10-20T10:23:54.746Z,22
2022-10-20T10:28:35.866Z,23
2022-10-20T10:33:18.123Z,22.1
2022-10-20T10:42:41.764Z,21.1
2022-10-20T10:47:23.017Z,20.7
2022-10-20T10:52:04.421Z,21
2022-10-20T10:56:46.631Z,20.5
2022-10-20T11:01:28.851Z,21.2
2022-10-20T11:06:11.199Z,21.9
2022-10-20T11:10:53.501Z,21.1
2022-10-20T11:15:35.693Z,21.9
2022-10-20T11:20:17.999Z,21.4
2022-10-20T11:25:00.304Z,22.3
2022-10-20T11:29:42.576Z,24.3
2022-10-20T11:34:24.824Z,23.6
2022-10-20T11:39:07.153Z,24.6
2022-10-20T11:43:49.459Z,24.4
2022-10-20T11:48:31.668Z,24.9
2022-10-20T11:53:12.977Z,25.2
2022-10-20T11:57:55.278Z,26.2
2022-10-20T12:02:37.505Z,27.1
2022-10-20T12:07:19.799Z,26.8
2022-10-20T12:12:02.108Z,26.8
2022-10-20T12:16:44.330Z,24.7
2022-10-20T12:21:26.645Z,22.8
2022-10-20T12:26:07.946Z,24
2022-10-20T12:30:49.257Z,23.2
2022-10-20T12:35:30.566Z,23.3
2022-10-20T12:40:11.901Z,22
2022-10-20T12:44:54.093Z,21
2022-10-20T12:49:36.394Z,19.8
2022-10-20T12:54:18.709Z,19.4
2022-10-20T12:59:00.926Z,19.9
2022-10-20T13:03:43.230Z,20.5
2022-10-20T13:08:25.545Z,20.7
2022-10-20T13:13:07.858Z,20.3
2022-10-20T13:17:50.117Z,20.5
2022-10-20T13:22:32.406Z,20.5
2022-10-20T13:27:14.697Z,20.2
2022-10-20T13:31:56.955Z,20
2022-10-20T13:36:39.231Z,19.6
2022-10-20T13:41:20.530Z,19.3
2022-10-20T13:46:02.738Z,19.1
2022-10-20T13:50:45.047Z,19.2
2022-10-20T13:55:27.360Z,20.1
2022-10-20T14:00:09.570Z,19.9
2022-10-20T14:04:51.881Z,19.3
2022-10-20T14:09:34.200Z,18.9
2022-10-20T14:14:15.500Z,18.5
2022-10-20T14:18:56.815Z,18.3
2022-10-20T14:23:39.049Z,18.2
2022-10-20T14:28:21.332Z,17.9
2022-10-20T14:33:03.669Z,17.7
2022-10-20T14:37:45.855Z,17.6
2022-10-20T14:42:28.167Z,17.5
2022-10-20T14:47:10.626Z,17.1
2022-10-20T14:51:52.832Z,17
2022-10-20T14:56:35.009Z,16.8
2022-10-20T15:01:17.307Z,16.7
2022-10-20T15:05:59.536Z,16.6
2022-10-20T15:10:41.835Z,16.4
2022-10-20T15:15:24.158Z,16.2
2022-10-20T15:20:05.456Z,16
2022-10-20T15:24:47.669Z,15.9
2022-10-20T15:29:29.976Z,15.7
2022-10-20T15:34:12.284Z,15.7
2022-10-20T15:38:54.500Z,15.6
2022-10-20T15:43:36.810Z,15.4
2022-10-20T15:48:19.123Z,15.3
2022-10-20T15:53:00.430Z,15.2
2022-10-20T15:57:41.740Z,15.1
2022-10-20T16:02:23.051Z,15.1
2022-10-20T16:07:04.260Z,15
2022-10-20T16:11:46.580Z,15
2022-10-20T16:16:28.884Z,14.9
2022-10-20T16:21:11.148Z,14.9
2022-10-20T16:25:53.402Z,14.8
2022-10-20T16:30:35.716Z,14.8
2022-10-20T16:35:18.019Z,14.9
2022-10-20T16:40:00.239Z,14.8
2022-10-20T16:44:42.552Z,14.7
2022-10-20T16:49:24.857Z,14.6
2022-10-20T16:54:07.070Z,14.6
2022-10-20T16:58:49.381Z,14.6
2022-10-20T17:08:13.944Z,14.2
2022-10-20T17:12:55.254Z,14.4
2022-10-20T17:17:37.486Z,14.4
2022-10-20T17:22:19.772Z,14.4
2022-10-20T17:27:02.085Z,14.3
2022-10-20T17:31:44.297Z,14.3
2022-10-20T17:36:26.611Z,14
2022-10-20T17:41:08.935Z,13.9
2022-10-20T17:45:51.132Z,13.9
2022-10-20T17:50:32.441Z,13.8
2022-10-20T17:55:13.751Z,13.7
2022-10-20T17:59:55.067Z,13.6
2022-10-20T18:04:36.377Z,13.6
2022-10-20T18:09:18.682Z,13.5
2022-10-20T18:14:00.994Z,13.5
2022-10-20T18:18:43.245Z,13.4
2022-10-20T18:23:25.519Z,13.4
2022-10-20T18:28:07.854Z,13.3
2022-10-20T18:32:50.098Z,13.3
2022-10-20T18:37:32.397Z,13.2
2022-10-20T18:42:14.662Z,13.3
2022-10-20T18:46:56.878Z,13.3
2022-10-20T18:51:39.186Z,13.3
2022-10-20T18:56:21.496Z,13.2
2022-10-20T19:01:03.710Z,13.1
2022-10-20T19:05:45.015Z,13.2
2022-10-20T19:10:27.323Z,13.2
2022-10-20T19:15:09.647Z,13.1
2022-10-20T19:19:51.856Z,13.2
2022-10-20T19:24:34.163Z,13.1
2022-10-20T19:29:16.471Z,13.3
2022-10-20T19:33:58.701Z,13.2
2022-10-20T19:38:39.994Z,13.1
2022-10-20T19:43:21.304Z,13.2
2022-10-20T19:48:02.609Z,13.1
2022-10-20T19:52:43.925Z,13.1
2022-10-20T19:57:26.230Z,13
2022-10-20T20:02:08.451Z,13.2
2022-10-20T20:06:50.769Z,13.2
2022-10-20T20:11:33.072Z,13.3
2022-10-20T20:16:15.313Z,13.1
2022-10-20T20:20:57.587Z,13.2
2022-10-20T20:25:39.925Z,13.3
2022-10-20T20:30:22.115Z,13.2
2022-10-20T20:35:04.424Z,13.3
2022-10-20T20:39:46.735Z,13.3
2022-10-20T20:44:28.941Z,13.2
2022-10-20T20:49:11.258Z,13.2
2022-10-20T20:53:52.565Z,13.1
2022-10-20T20:58:34.873Z,13.1
2022-10-20T21:03:17.087Z,13
2022-10-20T21:07:59.402Z,13
2022-10-20T21:12:41.710Z,13
2022-10-20T21:17:23.921Z,12.8
2022-10-20T21:22:06.230Z,12.9
2022-10-20T21:26:47.551Z,12.9
2022-10-20T21:31:28.868Z,12.7
2022-10-20T21:36:10.164Z,12.7
2022-10-20T21:40:51.474Z,12.8
2022-10-20T21:45:33.782Z,12.7
2022-10-20T21:50:16.021Z,12.7
2022-10-20T21:54:58.300Z,12.8
2022-10-20T21:59:40.615Z,12.8
2022-10-20T22:04:22.822Z,12.9
2022-10-20T22:09:05.135Z,12.8
2022-10-20T22:13:47.449Z,13
2022-10-20T22:18:29.665Z,13
2022-10-20T22:23:11.981Z,13.2
2022-10-20T22:27:54.285Z,13.1
2022-10-20T22:32:36.495Z,13.2
2022-10-20T22:37:18.803Z,13.2
2022-10-20T22:42:00.137Z,13.3
2022-10-20T22:46:42.424Z,13.3
2022-10-20T22:51:24.636Z,13.2
2022-10-20T22:56:06.947Z,13.3
2022-10-20T23:00:49.255Z,13.1
2022-10-20T23:05:31.467Z,13.2
2022-10-20T23:10:13.783Z,13.2
2022-10-20T23:14:55.091Z,13.1
2022-10-20T23:19:36.402Z,13.2
2022-10-20T23:24:17.727Z,13.2
2022-10-20T23:28:59.034Z,13.1
2022-10-20T23:33:41.232Z,13.1
2022-10-20T23:38:23.542Z,12.8
2022-10-20T23:43:05.855Z,12.7
2022-10-20T23:47:48.063Z,12.5
2022-10-20T23:52:30.385Z,12.3
2022-10-20T23:57:12.688Z,12.4
